Time,TemperatureF,DewpointF,PressureIn,WindDirection,WindDirectionDegrees,WindSpeedMPH,WindSpeedGustMPH,Humidity,HourlyPrecipIn,Conditions,Clouds,dailyrainin,SoftwareType,DateUTC
2013-05-15 00:12:00,63.1,62.6,29.99,East,90,0.0,-999.0,98,-99.99,,,0.00,Acu-Link.com,2013-05-15 02:12:00,
2013-05-15 00:27:00,62.6,62.0,29.99,NNW,337,0.0,-999.0,98,-99.99,,,0.00,Acu-Link.com,2013-05-15 02:27:00,
2013-05-15 00:43:00,61.9,61.3,29.99,NW,315,0.0,-999.0,98,-99.99,,,0.00,Acu-Link.com,2013-05-15 02:43:00,
2013-05-15 00:58:00,61.2,60.6,29.99,SSW,202,0.0,-999.0,98,-99.99,,,0.00,Acu-Link.com,2013-05-15 02:58:00,
2013-05-15 01:13:00,60.6,60.1,29.99,North,0,1.1,-999.0,98,-99.99,,,0.00,Acu-Link.com,2013-05-15 03:13:00,
2013-05-15 01:28:00,60.4,59.9,29.99,NNW,337,1.1,-999.0,98,-99.99,,,0.00,Acu-Link.com,2013-05-15 03:28:00,
2013-05-15 01:43:00,59.0,58.4,29.99,ESE,112,0.0,-999.0,98,-99.99,,,0.00,Acu-Link.com,2013-05-15 03:43:00,
2013-05-15 01:58:00,58.6,58.1,29.99,ESE,112,0.0,-999.0,98,-99.99,,,0.00,Acu-Link.com,2013-05-15 03:58:00,
2013-05-15 02:14:00,58.1,57.5,29.99,SE,135,0.0,-999.0,98,-99.99,,,0.00,Acu-Link.com,2013-05-15 04:14:00,
2013-05-15 02:29:00,57.7,57.2,29.99,ESE,112,0.0,-999.0,98,-99.99,,,0.00,Acu-Link.com,2013-05-15 04:29:00,
2013-05-15 02:44:00,57.4,56.8,29.99,NNW,337,0.0,-999.0,98,-99.99,,,0.00,Acu-Link.com,2013-05-15 04:44:00,
2013-05-15 02:59:00,57.6,57.0,29.99,SSW,202,0.0,-999.0,98,-99.99,,,0.00,Acu-Link.com,2013-05-15 04:59:00,
2013-05-15 03:14:00,59.5,59.0,29.99,NNE,22,0.0,-999.0,98,-99.99,,,0.00,Acu-Link.com,2013-05-15 05:14:00,
2013-05-15 03:30:00,61.0,60.4,29.99,NW,315,0.0,-999.0,98,-99.99,,,0.00,Acu-Link.com,2013-05-15 05:30:00,
2013-05-15 03:45:00,61.5,60.9,29.99,WSW,247,0.0,-999.0,98,-99.99,,,0.00,Acu-Link.com,2013-05-15 05:45:00,
2013-05-15 04:00:00,63.0,62.4,29.99,NW,315,0.0,-999.0,98,-99.99,,,0.00,Acu-Link.com,2013-05-15 06:00:00,
2013-05-15 04:15:00,62.8,62.2,29.98,NNW,337,1.1,-999.0,98,-99.99,,,0.00,Acu-Link.com,2013-05-15 06:15:00,
2013-05-15 04:30:00,62.4,61.8,29.98,NNE,22,0.0,-999.0,98,-99.99,,,0.00,Acu-Link.com,2013-05-15 06:30:00,
2013-05-15 04:46:00,62.4,61.8,29.98,North,0,0.0,-999.0,98,-99.99,,,0.00,Acu-Link.com,2013-05-15 06:46:00,
2013-05-15 05:01:00,62.6,62.0,29.98,WNW,292,0.0,-999.0,98,-99.99,,,0.00,Acu-Link.com,2013-05-15 07:01:00,
2013-05-15 05:16:00,62.6,62.0,29.98,ENE,67,0.0,-999.0,98,-99.99,,,0.00,Acu-Link.com,2013-05-15 07:16:00,
2013-05-15 05:31:00,61.2,60.6,29.97,WNW,292,0.0,-999.0,98,-99.99,,,0.00,Acu-Link.com,2013-05-15 07:31:00,
2013-05-15 05:46:00,59.9,59.3,29.97,SSW,202,0.0,-999.0,98,-99.99,,,0.00,Acu-Link.com,2013-05-15 07:46:00,
2013-05-15 06:01:00,59.0,58.4,29.97,South,180,0.0,-999.0,98,-99.99,,,0.00,Acu-Link.com,2013-05-15 08:01:00,
2013-05-15 06:16:00,58.6,58.1,29.97,ENE,67,0.0,-999.0,98,-99.99,,,0.00,Acu-Link.com,2013-05-15 08:16:00,
2013-05-15 06:31:00,58.8,58.3,29.97,South,180,0.0,-999.0,98,-99.99,,,0.00,Acu-Link.com,2013-05-15 08:31:00,
2013-05-15 06:47:00,59.2,58.6,29.97,NW,315,0.0,-999.0,98,-99.99,,,0.00,Acu-Link.com,2013-05-15 08:47:00,
2013-05-15 07:02:00,59.9,59.3,29.97,SSW,202,0.0,-999.0,98,-99.99,,,0.00,Acu-Link.com,2013-05-15 09:02:00,
2013-05-15 07:17:00,60.4,59.9,29.97,ESE,112,0.0,-999.0,98,-99.99,,,0.00,Acu-Link.com,2013-05-15 09:17:00,
2013-05-15 07:32:00,60.4,59.9,29.97,SW,225,0.0,-999.0,98,-99.99,,,0.00,Acu-Link.com,2013-05-15 09:32:00,
2013-05-15 07:47:00,61.2,60.6,29.97,NNW,337,0.0,-999.0,98,-99.99,,,0.00,Acu-Link.com,2013-05-15 09:47:00,
2013-05-15 08:03:00,60.4,59.9,29.97,NNW,337,1.1,-999.0,98,-99.99,,,0.00,Acu-Link.com,2013-05-15 10:03:00,
2013-05-15 08:18:00,59.9,59.3,29.97,NNW,337,0.0,-999.0,98,-99.99,,,0.00,Acu-Link.com,2013-05-15 10:18:00,
2013-05-15 08:33:00,61.2,60.6,29.98,WNW,292,0.0,-999.0,98,-99.99,,,0.00,Acu-Link.com,2013-05-15 10:33:00,
2013-05-15 08:48:00,60.8,60.2,29.98,NNE,22,0.0,-999.0,98,-99.99,,,0.00,Acu-Link.com,2013-05-15 10:48:00,
2013-05-15 09:03:00,59.7,59.2,29.98,WNW,292,0.0,-999.0,98,-99.99,,,0.00,Acu-Link.com,2013-05-15 11:03:00,
2013-05-15 09:19:00,59.9,59.3,29.99,WNW,292,0.0,-999.0,98,-99.99,,,0.00,Acu-Link.com,2013-05-15 11:19:00,
2013-05-15 09:34:00,61.5,60.9,29.99,West,270,0.0,-999.0,98,-99.99,,,0.00,Acu-Link.com,2013-05-15 11:34:00,
2013-05-15 09:49:00,63.7,63.1,29.99,North,0,0.0,-999.0,98,-99.99,,,0.00,Acu-Link.com,2013-05-15 11:49:00,
2013-05-15 10:04:00,65.3,64.7,29.99,ENE,67,0.0,-999.0,98,-99.99,,,0.00,Acu-Link.com,2013-05-15 12:04:00,
2013-05-15 10:19:00,66.0,65.4,29.99,NNW,337,0.0,-999.0,98,-99.99,,,0.00,Acu-Link.com,2013-05-15 12:19:00,
2013-05-15 10:35:00,66.9,66.3,29.99,WSW,247,0.0,-999.0,98,-99.99,,,0.00,Acu-Link.com,2013-05-15 12:35:00,
2013-05-15 10:50:00,68.0,67.4,29.99,NNW,337,2.2,-999.0,98,-99.99,,,0.00,Acu-Link.com,2013-05-15 12:50:00,
2013-05-15 11:05:00,69.3,68.7,29.99,NNE,22,0.0,-999.0,98,-99.99,,,0.00,Acu-Link.com,2013-05-15 13:05:00,
2013-05-15 11:20:00,71.6,71.0,29.99,SSE,157,0.0,-999.0,98,-99.99,,,0.00,Acu-Link.com,2013-05-15 13:20:00,
2013-05-15 11:35:00,73.2,71.1,30.00,NW,315,0.0,-999.0,93,-99.99,,,0.00,Acu-Link.com,2013-05-15 13:35:00,
2013-05-15 11:51:00,75.4,70.9,29.99,NE,45,0.0,-999.0,86,-99.99,,,0.00,Acu-Link.com,2013-05-15 13:51:00,
2013-05-15 12:06:00,82.0,67.2,30.00,SSW,202,0.0,-999.0,61,-99.99,,,0.00,Acu-Link.com,2013-05-15 14:06:00,
2013-05-15 12:21:00,84.4,65.4,30.00,WSW,247,0.0,-999.0,53,-99.99,,,0.00,Acu-Link.com,2013-05-15 14:21:00,
2013-05-15 12:43:00,87.3,63.3,29.99,East,90,3.8,-999.0,45,-99.99,,,0.00,Acu-Link.com,2013-05-15 14:43:00,
2013-05-15 13:00:00,90.0,63.7,29.99,South,180,1.1,-999.0,42,-99.99,,,0.00,Acu-Link.com,2013-05-15 15:00:00,
2013-05-15 13:15:00,90.5,62.1,29.99,SSE,157,0.0,-999.0,39,-99.99,,,0.00,Acu-Link.com,2013-05-15 15:15:00,
2013-05-15 13:30:00,90.0,61.6,29.99,NW,315,1.1,-999.0,39,-99.99,,,0.00,Acu-Link.com,2013-05-15 15:30:00,
2013-05-15 13:48:00,89.4,62.6,29.99,SSW,202,0.0,-999.0,41,-99.99,,,0.00,Acu-Link.com,2013-05-15 15:48:00,
2013-05-15 14:06:00,88.7,61.9,29.98,NNW,337,0.0,-999.0,41,-99.99,,,0.00,Acu-Link.com,2013-05-15 16:06:00,
2013-05-15 14:21:00,87.4,62.8,29.97,East,90,0.0,-999.0,44,-99.99,,,0.00,Acu-Link.com,2013-05-15 16:21:00,
2013-05-15 14:37:00,88.3,62.3,29.97,NW,315,2.2,-999.0,42,-99.99,,,0.00,Acu-Link.com,2013-05-15 16:37:00,
2013-05-15 14:52:00,88.7,61.9,29.96,NNW,337,0.0,-999.0,41,-99.99,,,0.00,Acu-Link.com,2013-05-15 16:52:00,